Time;durP1;ratioP1;P1;durP2;ratioP2;P2;SDS_P1;SDS_P2;PMS_P1;PMS_P2;Temp;Humidity;BMP_temperature;BMP_pressure;BME280_temperature;BME280_humidity;BME280_pressure;Samples;Min_cycle;Max_cycle;Signal;HPM_P1;HPM_P2
2021/03/26 00:00:53;;;;;;;8.13;3.83;;;8.70;1.00;;;;;;5070663;28;20405;-75
2021/03/26 00:03:30;;;;;;;17.40;3.60;;;8.70;1.00;;;;;;5075005;28;20759;-75
2021/03/26 00:06:01;;;;;;;11.73;4.23;;;8.70;1.00;;;;;;5074861;28;20907;-75
2021/03/26 00:11:49;;;;;;;7.00;3.90;;;8.70;1.00;;;;;;5057838;28;20504;-75
2021/03/26 00:18:06;;;;;;;7.60;3.60;;;8.80;1.00;;;;;;5062062;28;20417;-75
2021/03/26 00:20:33;;;;;;;7.63;4.20;;;8.80;1.00;;;;;;5056322;28;20379;-75
2021/03/26 00:23:01;;;;;;;8.60;4.43;;;8.90;1.00;;;;;;5075275;28;20422;-75
2021/03/26 00:25:42;;;;;;;7.40;4.03;;;8.90;1.00;;;;;;5055903;28;20481;-75
2021/03/26 00:28:24;;;;;;;6.63;3.67;;;8.90;1.00;;;;;;5056211;28;20445;-75
2021/03/26 00:31:07;;;;;;;5.93;3.50;;;8.80;1.00;;;;;;5056498;28;20425;-75
2021/03/26 00:33:36;;;;;;;5.80;3.77;;;8.90;1.00;;;;;;5056291;28;20454;-75
2021/03/26 00:36:13;;;;;;;7.50;4.10;;;8.80;1.00;;;;;;5075282;28;20448;-75
2021/03/26 00:39:12;;;;;;;13.70;5.23;;;8.90;1.00;;;;;;5073734;28;20424;-75
2021/03/26 00:45:17;;;;;;;8.73;4.20;;;8.80;1.00;;;;;;5055610;28;20413;-75
2021/03/26 00:48:06;;;;;;;8.37;4.30;;;8.90;1.00;;;;;;5056023;28;20412;-75
2021/03/26 00:50:56;;;;;;;9.53;4.43;;;8.90;1.00;;;;;;5055667;28;20432;-75
2021/03/26 00:53:32;;;;;;;9.20;4.90;;;8.90;1.00;;;;;;5055546;28;20601;-75
2021/03/26 00:55:58;;;;;;;15.83;5.40;;;8.90;1.00;;;;;;5063385;28;20418;-75
2021/03/26 00:58:36;;;;;;;10.80;5.20;;;8.90;1.00;;;;;;5071001;28;20424;-75
2021/03/26 01:01:18;;;;;;;12.23;6.40;;;8.90;1.00;;;;;;5075713;28;20442;-75
2021/03/26 01:03:48;;;;;;;11.70;5.83;;;9.00;1.00;;;;;;5075433;28;20414;-75
2021/03/26 01:06:20;;;;;;;8.80;4.50;;;8.90;1.00;;;;;;5070035;28;20445;-76
2021/03/26 01:08:46;;;;;;;10.90;5.50;;;8.90;1.00;;;;;;5074500;28;20519;-75
2021/03/26 01:14:33;;;;;;;8.57;5.00;;;8.90;1.00;;;;;;5074404;28;20254;-75
2021/03/26 01:16:59;;;;;;;9.03;5.27;;;8.90;1.00;;;;;;5074814;28;20480;-75
2021/03/26 01:19:48;;;;;;;11.47;4.90;;;8.90;1.00;;;;;;5075549;28;20159;-75
2021/03/26 01:22:36;;;;;;;8.63;4.30;;;8.80;1.00;;;;;;5074904;28;20608;-76
2021/03/26 01:25:37;;;;;;;7.03;4.30;;;8.70;1.00;;;;;;5074915;28;20954;-75
2021/03/26 01:28:19;;;;;;;10.10;4.50;;;8.70;1.00;;;;;;5072338;28;20435;-75
2021/03/26 01:30:46;;;;;;;7.47;4.70;;;8.70;1.00;;;;;;5056450;28;20418;-75
2021/03/26 01:33:21;;;;;;;9.43;5.43;;;8.70;1.00;;;;;;5063998;28;20448;-75
2021/03/26 01:35:49;;;;;;;10.73;4.90;;;8.70;1.00;;;;;;5079544;28;20443;-75
2021/03/26 01:38:36;;;;;;;21.33;5.13;;;8.70;1.00;;;;;;5075147;28;20405;-75
2021/03/26 01:41:41;;;;;;;8.87;4.60;;;8.80;1.00;;;;;;5058554;28;20417;-76
2021/03/26 01:44:28;;;;;;;11.40;5.70;;;8.90;1.00;;;;;;5009590;28;20814;-75
2021/03/26 01:47:29;;;;;;;11.00;5.13;;;8.90;1.00;;;;;;5011414;28;21002;-75
2021/03/26 01:50:01;;;;;;;8.77;5.17;;;8.90;1.00;;;;;;5019821;28;20891;-76
2021/03/26 01:52:48;;;;;;;12.40;5.20;;;8.90;1.00;;;;;;5012391;28;20471;-76
2021/03/26 01:55:26;;;;;;;14.63;5.10;;;8.90;1.00;;;;;;5013214;28;20446;-75
2021/03/26 01:57:52;;;;;;;8.87;4.80;;;8.90;1.00;;;;;;5010170;28;20442;-75
2021/03/26 02:00:32;;;;;;;12.13;4.47;;;9.10;1.00;;;;;;5012517;28;20523;-76
2021/03/26 02:03:17;;;;;;;11.50;5.50;;;9.00;1.00;;;;;;4997797;28;20431;-76
2021/03/26 02:05:51;;;;;;;9.67;4.73;;;9.10;1.00;;;;;;5005361;28;20430;-76
2021/03/26 02:08:29;;;;;;;10.90;5.13;;;9.10;1.00;;;;;;5003132;28;20435;-75
2021/03/26 02:10:57;;;;;;;22.87;5.10;;;9.10;1.00;;;;;;5011894;28;20427;-75
2021/03/26 02:13:32;;;;;;;11.10;5.30;;;9.10;1.00;;;;;;5012246;28;20578;-76
2021/03/26 02:16:48;;;;;;;16.53;4.80;;;9.10;1.00;;;;;;5010772;28;20422;-75
2021/03/26 02:20:06;;;;;;;8.10;4.50;;;9.10;1.00;;;;;;5059429;28;20440;-76
2021/03/26 02:22:37;;;;;;;11.53;5.37;;;9.10;1.00;;;;;;5073812;28;20421;-75
2021/03/26 02:25:19;;;;;;;12.27;5.33;;;9.20;1.00;;;;;;5072618;28;20496;-75
2021/03/26 02:28:24;;;;;;;9.73;4.70;;;9.20;1.00;;;;;;5053721;28;20460;-75
2021/03/26 02:30:58;;;;;;;10.03;5.10;;;9.20;1.00;;;;;;5054084;28;20455;-75
2021/03/26 02:33:30;;;;;;;9.73;5.23;;;9.20;1.00;;;;;;5053400;28;20453;-75
2021/03/26 02:39:42;;;;;;;7.83;4.00;;;9.20;1.00;;;;;;5073979;28;20416;-75
2021/03/26 02:42:31;;;;;;;10.83;4.87;;;9.10;1.00;;;;;;5072074;28;20448;-75
2021/03/26 02:45:04;;;;;;;9.03;4.43;;;9.10;1.00;;;;;;5073122;28;21231;-75
2021/03/26 02:47:42;;;;;;;7.90;4.30;;;9.10;1.00;;;;;;5069763;28;20425;-76
2021/03/26 02:50:20;;;;;;;8.60;4.50;;;9.10;1.00;;;;;;5059064;28;20418;-76
2021/03/26 02:53:22;;;;;;;11.33;4.80;;;9.10;1.00;;;;;;5053697;28;20802;-76
2021/03/26 02:55:58;;;;;;;17.00;4.80;;;9.10;1.00;;;;;;5070682;28;20469;-76
2021/03/26 02:58:47;;;;;;;9.90;4.60;;;9.10;1.00;;;;;;5062572;28;20425;-76
2021/03/26 03:01:47;;;;;;;10.37;4.80;;;9.10;1.00;;;;;;5064829;28;20888;-75
2021/03/26 03:04:35;;;;;;;13.53;5.33;;;9.20;1.00;;;;;;5011540;28;20448;-75
2021/03/26 03:07:16;;;;;;;11.00;4.80;;;9.10;1.00;;;;;;5008315;28;20429;-75
2021/03/26 03:10:36;;;;;;;7.90;4.70;;;9.10;1.00;;;;;;5003621;28;20830;-76
2021/03/26 03:13:36;;;;;;;8.07;4.80;;;9.10;1.00;;;;;;5008578;28;20459;-76
2021/03/26 03:16:13;;;;;;;9.77;4.70;;;9.10;1.00;;;;;;4997927;28;20425;-75
2021/03/26 03:19:06;;;;;;;7.03;4.43;;;9.10;1.00;;;;;;4992645;28;20499;-75
2021/03/26 03:21:48;;;;;;;9.47;4.93;;;9.10;1.00;;;;;;4991886;28;20551;-76
2021/03/26 03:24:38;;;;;;;10.47;5.20;;;9.10;1.00;;;;;;4992403;28;20424;-75
2021/03/26 03:27:29;;;;;;;10.60;5.17;;;9.10;1.00;;;;;;4993385;28;20613;-76
2021/03/26 03:30:24;;;;;;;9.03;4.90;;;9.10;1.00;;;;;;4996389;28;20796;-75
2021/03/26 03:33:23;;;;;;;9.93;5.00;;;9.10;1.00;;;;;;5013696;28;20958;-76
2021/03/26 03:35:57;;;;;;;10.80;4.60;;;9.10;1.00;;;;;;5015164;28;20423;-76
2021/03/26 03:38:24;;;;;;;9.70;5.33;;;9.10;1.00;;;;;;5014806;28;20424;-76
2021/03/26 03:41:11;;;;;;;13.40;5.80;;;9.10;1.00;;;;;;5073487;28;20903;-75
2021/03/26 03:44:21;;;;;;;10.23;5.13;;;9.10;1.00;;;;;;5072684;28;20822;-75
2021/03/26 03:47:18;;;;;;;11.03;4.60;;;9.00;1.00;;;;;;5020488;28;20822;-75
2021/03/26 03:50:24;;;;;;;6.83;4.33;;;9.00;1.00;;;;;;5034842;28;20687;-75
2021/03/26 03:53:42;;;;;;;10.00;4.80;;;9.00;1.00;;;;;;5021944;28;20471;-76
2021/03/26 03:56:38;;;;;;;7.93;4.03;;;8.90;1.00;;;;;;5017438;28;20420;-75
2021/03/26 03:59:42;;;;;;;7.83;4.63;;;8.90;1.00;;;;;;5030701;28;20502;-75
2021/03/26 04:02:36;;;;;;;8.20;4.33;;;8.90;1.00;;;;;;5034643;28;20403;-75
2021/03/26 04:08:54;;;;;;;7.57;4.00;;;8.90;1.00;;;;;;5023174;28;20470;-76
2021/03/26 04:11:36;;;;;;;8.33;4.10;;;8.80;1.00;;;;;;5022838;28;20440;-75
2021/03/26 04:14:24;;;;;;;9.47;4.43;;;8.80;1.00;;;;;;5014549;28;20470;-75
2021/03/26 04:17:18;;;;;;;5.67;3.83;;;8.70;1.00;;;;;;5024279;28;20421;-75
2021/03/26 04:19:54;;;;;;;11.40;4.80;;;8.70;1.00;;;;;;5056112;28;20402;-75
2021/03/26 04:22:55;;;;;;;10.00;4.80;;;8.70;1.00;;;;;;5072735;28;20421;-75
2021/03/26 04:25:41;;;;;;;8.30;4.80;;;8.70;1.00;;;;;;5076430;28;20474;-75
2021/03/26 04:28:48;;;;;;;11.83;4.80;;;8.70;1.00;;;;;;5075947;28;20876;-75
2021/03/26 04:31:42;;;;;;;10.87;4.83;;;8.70;1.00;;;;;;5030916;28;20516;-75
2021/03/26 04:34:19;;;;;;;10.07;5.20;;;8.70;1.00;;;;;;5033897;28;20403;-75
2021/03/26 04:36:58;;;;;;;9.10;4.83;;;8.70;1.00;;;;;;5034120;28;20430;-75
2021/03/26 04:40:06;;;;;;;12.17;5.43;;;8.60;1.00;;;;;;5025601;28;20945;-76
2021/03/26 04:42:48;;;;;;;10.40;5.50;;;8.60;1.00;;;;;;5033990;28;20734;-76
2021/03/26 04:45:37;;;;;;;9.83;4.70;;;8.60;1.00;;;;;;5032218;28;20427;-76
2021/03/26 04:48:24;;;;;;;18.47;5.60;;;8.60;1.00;;;;;;5017154;28;20514;-85
2021/03/26 04:51:33;;;;;;;13.57;4.93;;;8.60;1.00;;;;;;5014608;28;20415;-85
2021/03/26 05:00:46;;;;;;;14.20;4.93;;;8.40;1.00;;;;;;5031090;28;20371;-84
2021/03/26 05:07:12;;;;;;;18.77;6.47;;;8.40;1.00;;;;;;5055592;28;20452;-84
2021/03/26 05:13:12;;;;;;;9.10;5.30;;;8.40;1.00;;;;;;5062313;28;20457;-76
2021/03/26 05:15:56;;;;;;;13.90;5.03;;;8.40;1.00;;;;;;5055436;28;20414;-75
2021/03/26 05:18:43;;;;;;;18.43;5.50;;;8.40;1.00;;;;;;5062795;28;20448;-75
2021/03/26 05:21:26;;;;;;;8.77;5.10;;;8.50;1.00;;;;;;5056182;28;20752;-75
2021/03/26 05:24:30;;;;;;;16.40;4.80;;;8.50;1.00;;;;;;5078151;28;20775;-76
2021/03/26 05:27:13;;;;;;;9.37;5.40;;;8.40;1.00;;;;;;5079675;28;20449;-75
2021/03/26 05:29:40;;;;;;;14.40;5.57;;;8.50;1.00;;;;;;5075196;28;20429;-75
2021/03/26 05:32:34;;;;;;;11.73;4.70;;;8.50;1.00;;;;;;5074843;28;20448;-76
2021/03/26 05:35:40;;;;;;;11.23;5.10;;;8.50;1.00;;;;;;5074819;28;20417;-75
2021/03/26 05:38:18;;;;;;;14.80;6.50;;;8.50;1.00;;;;;;5032760;28;20427;-80
2021/03/26 05:40:47;;;;;;;13.20;6.20;;;;;;;;;;5027327;28;20423;-75
2021/03/26 05:43:37;;;;;;;11.73;6.27;;;8.50;1.00;;;;;;5032882;28;20433;-77
2021/03/26 05:46:54;;;;;;;12.47;5.80;;;8.60;1.00;;;;;;5035500;28;20486;-76
2021/03/26 05:52:49;;;;;;;10.43;5.93;;;8.70;1.00;;;;;;5023299;28;20876;-76
2021/03/26 05:55:39;;;;;;;12.77;6.80;;;8.80;1.00;;;;;;5032011;28;20479;-74
2021/03/26 05:58:36;;;;;;;9.87;6.07;;;8.90;1.00;;;;;;5032117;28;20778;-76
2021/03/26 06:01:36;;;;;;;12.53;5.70;;;9.00;1.00;;;;;;5016433;28;20447;-76
2021/03/26 06:04:24;;;;;;;15.83;7.30;;;9.10;1.00;;;;;;5019368;28;20434;-76
2021/03/26 06:07:20;;;;;;;13.90;6.67;;;9.10;1.00;;;;;;5032084;28;20426;-79
2021/03/26 06:10:19;;;;;;;14.87;6.83;;;9.20;1.00;;;;;;5032262;28;20435;-78
2021/03/26 06:19:41;;;;;;;19.07;7.80;;;;;;;;;;5058391;28;20455;-78
2021/03/26 06:25:55;;;;;;;20.80;8.40;;;9.70;1.00;;;;;;5068467;28;20395;-77
2021/03/26 06:35:30;;;;;;;19.60;7.50;;;10.00;1.00;;;;;;5004286;28;20504;-79
2021/03/26 06:38:25;;;;;;;20.43;8.10;;;;;;;;;;5018617;28;20523;-75
2021/03/26 06:41:29;;;;;;;15.00;8.00;;;10.30;1.00;;;;;;4971523;28;20446;-76
2021/03/26 06:44:21;;;;;;;14.63;7.43;;;10.40;1.00;;;;;;4957792;28;20493;-76
2021/03/26 06:46:53;;;;;;;53.80;11.50;;;10.50;1.00;;;;;;4967933;28;20671;-76
2021/03/26 06:49:51;;;;;;;20.63;7.77;;;10.50;1.00;;;;;;4970634;28;20456;-76
2021/03/26 06:53:12;;;;;;;18.73;7.67;;;10.70;1.00;;;;;;4934043;29;20484;-76
2021/03/26 06:59:12;;;;;;;16.93;7.50;;;10.90;1.00;;;;;;4933659;29;20533;-76
2021/03/26 07:01:49;;;;;;;19.57;7.73;;;;;;;;;;4933764;29;20454;-76
2021/03/26 07:04:30;;;;;;;13.70;8.20;;;11.30;1.00;;;;;;4922569;28;20400;-76
2021/03/26 07:07:29;;;;;;;15.87;7.80;;;11.30;1.00;;;;;;4986468;28;21321;-76
2021/03/26 07:10:18;;;;;;;14.87;8.40;;;11.50;1.00;;;;;;4974830;28;21003;-75
2021/03/26 07:13:10;;;;;;;15.67;7.33;;;11.70;1.00;;;;;;4995663;28;20468;-75
2021/03/26 07:16:07;;;;;;;18.23;8.10;;;11.80;1.00;;;;;;4957200;29;20550;-76
2021/03/26 07:19:08;;;;;;;13.83;7.00;;;12.00;1.00;;;;;;4973503;28;20400;-75
2021/03/26 07:22:09;;;;;;;18.70;8.20;;;12.10;1.00;;;;;;4974599;28;20435;-75
2021/03/26 07:25:07;;;;;;;18.43;8.10;;;12.10;1.00;;;;;;4973393;28;20413;-75
2021/03/26 07:28:06;;;;;;;15.40;8.10;;;12.10;1.00;;;;;;4936911;28;21010;-75
2021/03/26 07:30:32;;;;;;;21.30;8.07;;;;;;;;;;4974668;28;20483;-75
2021/03/26 07:33:26;;;;;;;15.67;7.60;;;12.10;1.00;;;;;;4973227;28;20855;-75
2021/03/26 07:36:07;;;;;;;14.83;8.33;;;12.00;1.00;;;;;;4974707;28;20448;-75
2021/03/26 07:38:51;;;;;;;17.60;7.43;;;12.00;1.00;;;;;;4974616;28;20388;-75
2021/03/26 07:41:50;;;;;;;17.03;8.03;;;12.10;1.00;;;;;;4978564;28;20428;-75
2021/03/26 07:44:48;;;;;;;18.07;8.20;;;12.10;1.00;;;;;;4974982;28;20395;-75
2021/03/26 07:47:23;;;;;;;18.50;8.40;;;12.00;1.00;;;;;;4974817;28;20888;-75
2021/03/26 07:49:48;;;;;;;17.80;9.00;;;;;;;;;;4967847;28;20388;-75
2021/03/26 07:52:34;;;;;;;16.27;8.60;;;11.70;1.00;;;;;;4971654;28;20836;-75
2021/03/26 07:55:26;;;;;;;16.20;8.87;;;11.70;1.00;;;;;;4994354;28;20479;-75
2021/03/26 07:57:58;;;;;;;18.90;8.27;;;11.70;1.00;;;;;;4994479;28;20428;-75
2021/03/26 08:00:35;;;;;;;14.83;7.87;;;11.70;1.00;;;;;;5016373;28;20910;-75
2021/03/26 08:03:25;;;;;;;23.27;9.70;;;11.80;1.00;;;;;;5019171;28;20814;-75
2021/03/26 08:06:10;;;;;;;24.00;9.20;;;11.80;1.00;;;;;;5094376;28;20801;-75
2021/03/26 08:09:09;;;;;;;20.90;9.63;;;11.80;1.00;;;;;;5075497;28;20480;-75
2021/03/26 08:11:59;;;;;;;23.90;9.03;;;11.90;1.00;;;;;;5074344;28;20439;-74
2021/03/26 08:14:40;;;;;;;19.03;9.07;;;11.90;1.00;;;;;;5067407;28;20433;-75
2021/03/26 08:17:06;;;;;;;16.53;7.73;;;;;;;;;;5073331;28;20480;-75
2021/03/26 08:19:41;;;;;;;65.43;13.47;;;;;;;;;;5071733;28;20461;-75
2021/03/26 08:22:07;;;;;;;24.03;8.77;;;;;;;;;;5061685;28;20501;-75
2021/03/26 08:24:48;;;;;;;51.27;13.20;;;12.30;1.00;;;;;;5073518;28;20390;-75
2021/03/26 08:27:38;;;;;;;17.57;9.53;;;12.30;1.00;;;;;;5075250;28;20424;-75
2021/03/26 08:30:32;;;;;;;21.57;10.57;;;12.50;1.00;;;;;;5075312;28;20385;-75
2021/03/26 08:33:12;;;;;;;18.80;9.20;;;12.60;1.00;;;;;;5054821;28;20458;-75
2021/03/26 08:36:19;;;;;;;20.00;10.07;;;12.60;1.00;;;;;;5067040;28;20527;-75
2021/03/26 08:39:09;;;;;;;21.73;9.90;;;12.70;1.00;;;;;;5074073;28;20904;-75
2021/03/26 08:41:38;;;;;;;23.00;10.57;;;12.80;1.00;;;;;;5075165;28;20364;-75
2021/03/26 08:44:05;;;;;;;21.83;9.53;;;12.90;1.00;;;;;;5073514;28;20399;-76
2021/03/26 08:46:36;;;;;;;19.83;9.60;;;13.00;1.00;;;;;;5074991;28;20402;-76
2021/03/26 08:49:15;;;;;;;25.67;10.80;;;13.00;1.00;;;;;;5067895;28;20467;-76
2021/03/26 08:51:56;;;;;;;20.70;9.43;;;13.00;1.00;;;;;;5069449;28;20448;-76
2021/03/26 08:54:43;;;;;;;25.13;10.53;;;13.10;1.00;;;;;;5074849;28;20484;-76
2021/03/26 08:57:36;;;;;;;23.40;10.53;;;13.30;1.00;;;;;;5075018;28;20406;-75
2021/03/26 09:00:24;;;;;;;23.77;11.30;;;13.30;1.00;;;;;;5074552;28;20400;-76
2021/03/26 09:03:27;;;;;;;19.93;9.17;;;13.30;1.00;;;;;;5074139;28;20880;-76
2021/03/26 09:06:22;;;;;;;25.40;10.37;;;13.30;1.00;;;;;;5092205;28;20856;-76
2021/03/26 09:09:00;;;;;;;20.23;9.90;;;13.50;1.00;;;;;;5015100;28;20395;-76
2021/03/26 09:11:51;;;;;;;28.03;10.10;;;13.60;1.00;;;;;;5011473;28;20457;-76
2021/03/26 09:14:31;;;;;;;21.27;9.73;;;13.80;1.00;;;;;;5006410;28;20486;-75
2021/03/26 09:17:21;;;;;;;23.87;10.27;;;13.90;1.00;;;;;;5009277;28;20854;-75
2021/03/26 09:19:50;;;;;;;27.00;9.40;;;13.90;1.00;;;;;;4998884;28;20407;-75
2021/03/26 09:22:47;;;;;;;24.47;11.33;;;13.90;1.00;;;;;;5011921;28;20461;-75
2021/03/26 09:25:19;;;;;;;21.43;9.67;;;14.00;1.00;;;;;;4998901;28;20388;-76
2021/03/26 09:27:51;;;;;;;23.87;10.23;;;14.00;1.00;;;;;;4994429;28;20486;-75
2021/03/26 09:31:00;;;;;;;20.90;10.13;;;14.10;1.00;;;;;;5002841;28;20387;-75
2021/03/26 09:33:32;;;;;;;18.50;9.93;;;14.40;1.00;;;;;;4997538;28;20552;-75
2021/03/26 09:36:21;;;;;;;20.67;10.30;;;14.30;1.00;;;;;;5012983;28;20420;-75
2021/03/26 09:39:08;;;;;;;24.53;10.13;;;14.40;1.00;;;;;;5012638;28;20432;-75
2021/03/26 09:41:48;;;;;;;20.27;9.73;;;14.50;1.00;;;;;;5000718;28;20468;-75
2021/03/26 09:44:25;;;;;;;26.00;9.87;;;14.60;1.00;;;;;;5008192;28;20407;-75
2021/03/26 09:47:00;;;;;;;22.40;9.93;;;14.60;1.00;;;;;;5065823;28;20407;-75
2021/03/26 09:49:37;;;;;;;19.23;10.20;;;14.80;1.00;;;;;;5067991;28;20890;-75
2021/03/26 09:52:26;;;;;;;26.77;10.00;;;14.90;1.00;;;;;;5054320;28;20444;-75
2021/03/26 09:54:59;;;;;;;21.23;8.73;;;15.00;1.00;;;;;;5066020;28;20400;-75
2021/03/26 09:57:37;;;;;;;17.00;8.83;;;15.20;1.00;;;;;;5074266;28;20367;-75
2021/03/26 10:00:45;;;;;;;22.93;9.13;;;15.30;1.00;;;;;;5073829;28;20381;-75
2021/03/26 10:03:13;;;;;;;18.40;9.30;;;;;;;;;;5087185;28;20371;-75
2021/03/26 10:05:55;;;;;;;19.97;10.40;;;15.30;1.00;;;;;;5054372;28;20383;-75
2021/03/26 10:11:45;;;;;;;16.70;9.17;;;15.30;1.00;;;;;;5093968;28;20835;-75
2021/03/26 10:14:30;;;;;;;20.30;8.53;;;15.30;1.00;;;;;;5073240;28;20404;-75
2021/03/26 10:17:11;;;;;;;20.87;8.47;;;15.40;1.00;;;;;;5073112;28;20425;-76
2021/03/26 10:19:50;;;;;;;16.70;8.43;;;15.50;1.00;;;;;;5073136;28;20375;-76
2021/03/26 10:22:36;;;;;;;17.27;8.97;;;15.50;1.00;;;;;;5052778;28;20413;-76
2021/03/26 10:25:18;;;;;;;28.90;9.33;;;15.60;1.00;;;;;;5052966;28;20409;-76
2021/03/26 10:28:10;;;;;;;14.87;7.63;;;15.60;1.00;;;;;;5052698;28;20394;-76
2021/03/26 10:30:46;;;;;;;13.90;7.63;;;15.80;1.00;;;;;;5061917;28;20402;-75
2021/03/26 10:33:15;;;;;;;13.97;7.40;;;15.90;1.00;;;;;;5072078;28;20453;-75
2021/03/26 10:35:57;;;;;;;21.17;9.67;;;15.80;1.00;;;;;;5073196;28;20417;-75
2021/03/26 10:38:43;;;;;;;19.57;7.03;;;15.70;1.00;;;;;;5072357;28;20747;-75
2021/03/26 10:41:24;;;;;;;12.30;7.53;;;15.70;1.00;;;;;;5071950;28;20723;-75
2021/03/26 10:44:14;;;;;;;9.97;6.17;;;15.70;1.00;;;;;;5073083;28;20664;-75
2021/03/26 10:46:44;;;;;;;19.73;7.10;;;15.90;1.00;;;;;;5072716;28;20372;-75
2021/03/26 10:49:30;;;;;;;15.57;6.50;;;16.10;1.00;;;;;;5060835;28;20422;-75
2021/03/26 10:52:06;;;;;;;15.03;6.90;;;16.30;1.00;;;;;;5052398;28;20803;-75
2021/03/26 10:54:53;;;;;;;17.80;6.80;;;16.50;1.00;;;;;;5060248;28;20397;-75
2021/03/26 10:57:29;;;;;;;18.53;7.30;;;16.70;1.00;;;;;;5071981;28;20763;-75
2021/03/26 11:00:00;;;;;;;14.60;7.30;;;16.80;1.00;;;;;;5072839;28;20420;-75
2021/03/26 11:02:26;;;;;;;16.30;7.33;;;;;;;;;;5052664;28;20805;-76
2021/03/26 11:05:24;;;;;;;13.33;7.20;;;17.20;1.00;;;;;;5069012;28;20516;-76
2021/03/26 11:08:02;;;;;;;15.67;7.47;;;17.20;1.00;;;;;;5072546;28;20397;-75
2021/03/26 11:11:06;;;;;;;13.60;7.50;;;17.00;1.00;;;;;;5072276;28;20379;-75
2021/03/26 11:13:55;;;;;;;20.20;7.70;;;16.90;1.00;;;;;;5010711;28;20465;-75
2021/03/26 11:16:56;;;;;;;20.00;8.07;;;17.00;1.00;;;;;;5004181;28;20555;-76
2021/03/26 11:19:31;;;;;;;13.47;6.70;;;17.10;1.00;;;;;;4987289;28;20434;-76
2021/03/26 11:22:23;;;;;;;10.87;5.90;;;17.10;1.00;;;;;;4988769;28;20512;-76
2021/03/26 11:25:07;;;;;;;13.77;4.80;;;17.10;1.00;;;;;;4990472;28;20461;-77
2021/03/26 11:27:46;;;;;;;14.97;5.43;;;17.10;1.00;;;;;;4999271;28;20880;-75
2021/03/26 11:30:33;;;;;;;8.57;4.73;;;17.40;1.00;;;;;;4971492;28;20420;-75
2021/03/26 11:33:29;;;;;;;5.40;3.40;;;17.60;1.00;;;;;;4971370;28;20448;-75
2021/03/26 11:35:56;;;;;;;10.57;5.40;;;17.70;1.00;;;;;;4971162;28;20401;-75
2021/03/26 11:38:34;;;;;;;8.63;3.93;;;17.80;1.00;;;;;;4971360;28;20434;-75
2021/03/26 11:41:15;;;;;;;11.23;5.80;;;17.80;1.00;;;;;;4971407;28;20422;-75
2021/03/26 11:43:50;;;;;;;10.37;5.10;;;17.90;1.00;;;;;;4981831;28;20433;-75
2021/03/26 11:46:18;;;;;;;11.47;5.87;;;17.90;1.00;;;;;;4990252;28;20432;-75
2021/03/26 11:48:59;;;;;;;8.90;5.17;;;17.80;1.00;;;;;;4990476;28;20426;-75
2021/03/26 11:51:38;;;;;;;9.80;5.40;;;17.80;1.00;;;;;;5049372;28;20418;-75
2021/03/26 11:54:27;;;;;;;7.90;5.00;;;17.80;1.00;;;;;;5050824;28;20906;-75
2021/03/26 11:57:17;;;;;;;11.50;5.17;;;17.80;1.00;;;;;;5071793;28;20748;-75
2021/03/26 12:00:15;;;;;;;16.90;5.80;;;18.00;1.00;;;;;;5075854;28;20419;-75
2021/03/26 12:03:04;;;;;;;12.60;5.83;;;18.00;1.00;;;;;;5013564;28;20425;-75
2021/03/26 12:06:02;;;;;;;8.23;5.07;;;18.00;1.00;;;;;;4999802;28;20925;-75
2021/03/26 12:09:03;;;;;;;11.33;5.20;;;17.90;1.00;;;;;;4974351;28;20434;-75
2021/03/26 12:11:43;;;;;;;10.53;5.60;;;18.00;1.00;;;;;;4974409;28;20401;-75
2021/03/26 12:14:32;;;;;;;10.80;5.33;;;17.90;1.00;;;;;;4988665;28;20441;-75
2021/03/26 12:17:05;;;;;;;16.77;5.33;;;17.70;1.00;;;;;;4973444;28;20426;-75
2021/03/26 12:19:37;;;;;;;11.30;5.60;;;17.70;1.00;;;;;;4975681;28;20465;-75
2021/03/26 12:22:21;;;;;;;9.47;5.20;;;17.80;1.00;;;;;;4973948;28;20454;-75
2021/03/26 12:25:23;;;;;;;9.17;5.07;;;18.00;1.00;;;;;;4977237;28;20438;-75
2021/03/26 12:27:52;;;;;;;8.30;5.60;;;18.30;1.00;;;;;;4979114;28;20466;-75
2021/03/26 12:30:21;;;;;;;10.30;4.97;;;18.60;1.00;;;;;;4986057;28;20964;-76
2021/03/26 12:33:01;;;;;;;10.77;4.87;;;18.70;1.00;;;;;;4971109;28;20562;-76
2021/03/26 12:35:33;;;;;;;7.87;4.90;;;18.80;1.00;;;;;;4973829;28;20456;-76
2021/03/26 12:37:59;;;;;;;8.70;4.77;;;;;;;;;;4973486;28;20981;-80
2021/03/26 12:40:36;;;;;;;9.53;5.10;;;18.80;1.00;;;;;;5026977;28;20424;-80
2021/03/26 12:43:25;;;;;;;11.13;5.37;;;18.80;1.00;;;;;;5052123;28;20506;-84
2021/03/26 12:46:06;;;;;;;18.43;5.60;;;18.80;1.00;;;;;;4977130;28;20865;-75
2021/03/26 12:49:00;;;;;;;10.70;5.30;;;18.80;1.00;;;;;;5010239;28;20855;-75
2021/03/26 12:51:37;;;;;;;7.47;5.13;;;18.60;1.00;;;;;;4973754;28;20431;-75
2021/03/26 12:54:35;;;;;;;12.77;5.53;;;18.50;1.00;;;;;;4977583;28;20430;-75
2021/03/26 12:57:00;;;;;;;15.37;5.73;;;;;;;;;;4993008;28;20474;-75
2021/03/26 12:59:41;;;;;;;13.40;5.70;;;18.60;1.00;;;;;;4993085;28;20476;-76
2021/03/26 13:02:31;;;;;;;8.53;5.13;;;18.60;1.00;;;;;;4992564;28;20455;-75
2021/03/26 13:05:03;;;;;;;9.50;5.60;;;18.40;1.00;;;;;;4993004;28;20894;-75
2021/03/26 13:07:56;;;;;;;12.93;5.80;;;18.50;1.00;;;;;;4992582;28;20496;-76
2021/03/26 13:10:46;;;;;;;26.53;5.70;;;18.70;1.00;;;;;;4992661;28;20468;-75
2021/03/26 13:13:35;;;;;;;8.53;5.10;;;18.80;1.00;;;;;;4992799;28;20455;-75
2021/03/26 13:16:24;;;;;;;10.83;4.70;;;18.80;1.00;;;;;;4993213;28;20876;-75
2021/03/26 13:18:58;;;;;;;13.13;5.90;;;18.60;1.00;;;;;;4991221;28;20489;-75
2021/03/26 13:21:33;;;;;;;10.33;5.57;;;18.60;1.00;;;;;;4992482;28;20442;-75
2021/03/26 13:24:41;;;;;;;10.40;5.60;;;18.50;1.00;;;;;;5048647;28;20407;-75
2021/03/26 13:27:19;;;;;;;9.77;5.43;;;18.60;1.00;;;;;;5011736;28;20452;-75
2021/03/26 13:30:14;;;;;;;9.23;4.57;;;18.60;1.00;;;;;;5012423;28;20423;-75
2021/03/26 13:32:55;;;;;;;8.20;5.10;;;18.50;1.00;;;;;;4934414;29;20470;-75
2021/03/26 13:35:38;;;;;;;13.63;4.27;;;18.40;1.00;;;;;;4934021;29;20442;-76
2021/03/26 13:38:12;;;;;;;9.90;3.93;;;18.50;1.00;;;;;;4934485;29;20815;-76
2021/03/26 13:40:48;;;;;;;13.90;5.83;;;18.70;1.00;;;;;;4934404;29;20408;-76
2021/03/26 13:43:27;;;;;;;7.03;5.40;;;18.80;1.00;;;;;;4918509;29;20847;-76
2021/03/26 13:45:58;;;;;;;11.00;5.20;;;18.90;1.00;;;;;;4934821;29;20406;-76
2021/03/26 13:48:27;;;;;;;10.40;5.90;;;19.00;1.00;;;;;;4934163;29;20422;-76
2021/03/26 13:51:10;;;;;;;10.73;5.00;;;19.00;1.00;;;;;;4934260;29;20509;-76
2021/03/26 13:53:44;;;;;;;8.13;5.43;;;19.10;1.00;;;;;;4934095;29;20484;-76
2021/03/26 13:56:31;;;;;;;9.27;4.70;;;19.10;1.00;;;;;;4933977;29;20420;-75
2021/03/26 13:59:03;;;;;;;10.20;5.63;;;19.10;1.00;;;;;;4934131;29;20399;-76
2021/03/26 14:01:35;;;;;;;8.53;5.00;;;19.10;1.00;;;;;;4934272;29;20529;-75
2021/03/26 14:04:17;;;;;;;15.83;5.40;;;19.10;1.00;;;;;;4985654;28;20407;-75
2021/03/26 14:06:56;;;;;;;12.87;5.10;;;19.30;1.00;;;;;;5031285;28;20513;-75
2021/03/26 14:09:30;;;;;;;7.10;4.60;;;19.30;1.00;;;;;;5055678;28;20981;-75
2021/03/26 14:12:02;;;;;;;9.97;4.77;;;19.40;1.00;;;;;;5093029;28;20951;-75
2021/03/26 14:14:47;;;;;;;10.33;4.43;;;19.60;1.00;;;;;;5093282;28;20752;-75
2021/03/26 14:17:36;;;;;;;9.47;5.30;;;19.40;1.00;;;;;;5093830;28;20448;-76
2021/03/26 14:20:04;;;;;;;7.20;4.57;;;19.50;1.00;;;;;;5076340;28;20463;-76
2021/03/26 14:22:51;;;;;;;10.47;5.03;;;19.40;1.00;;;;;;5072399;28;20475;-76
2021/03/26 14:25:17;;;;;;;10.47;4.37;;;;;;;;;;5073021;28;20894;-76
2021/03/26 14:28:13;;;;;;;6.50;4.67;;;19.60;1.00;;;;;;5072783;28;20373;-76
2021/03/26 14:30:48;;;;;;;8.00;4.43;;;19.60;1.00;;;;;;5073197;28;20826;-75
2021/03/26 14:33:18;;;;;;;8.40;5.33;;;;;;;;;;5072933;28;20443;-75
2021/03/26 14:35:53;;;;;;;8.37;4.50;;;19.80;1.00;;;;;;5072955;28;20777;-75
2021/03/26 14:38:41;;;;;;;8.63;4.47;;;19.80;1.00;;;;;;5067899;28;20420;-75
2021/03/26 14:41:28;;;;;;;6.90;4.67;;;19.70;1.00;;;;;;5055159;28;20454;-75
2021/03/26 14:44:17;;;;;;;9.47;4.43;;;19.60;1.00;;;;;;5053769;28;20405;-75
2021/03/26 14:46:45;;;;;;;5.50;3.60;;;19.30;1.00;;;;;;5054396;28;20374;-75
2021/03/26 14:49:36;;;;;;;8.27;4.93;;;19.30;1.00;;;;;;5053617;28;20389;-75
2021/03/26 14:52:39;;;;;;;9.87;5.20;;;19.40;1.00;;;;;;5067125;28;20585;-75
2021/03/26 14:55:14;;;;;;;11.53;6.40;;;19.50;1.00;;;;;;5011692;28;20454;-75
2021/03/26 14:58:08;;;;;;;6.97;4.53;;;19.50;1.00;;;;;;5023740;28;20465;-75
2021/03/26 15:01:01;;;;;;;8.20;4.63;;;19.70;1.00;;;;;;5013848;28;20429;-75
2021/03/26 15:03:45;;;;;;;6.47;4.57;;;19.70;1.00;;;;;;5031608;28;20408;-78
2021/03/26 15:06:22;;;;;;;9.17;3.87;;;19.70;1.00;;;;;;5031239;28;20414;-75
2021/03/26 15:09:32;;;;;;;10.90;4.60;;;19.60;1.00;;;;;;5016651;28;20430;-76
2021/03/26 15:12:17;;;;;;;8.23;4.57;;;19.60;1.00;;;;;;5010402;28;20462;-77
2021/03/26 15:14:56;;;;;;;6.60;3.90;;;19.60;1.00;;;;;;5011658;28;20397;-76
2021/03/26 15:17:35;;;;;;;5.87;3.70;;;19.80;1.00;;;;;;5027235;28;20401;-76
2021/03/26 15:20:07;;;;;;;8.23;4.30;;;19.80;1.00;;;;;;5025690;28;20467;-76
2021/03/26 15:22:54;;;;;;;11.70;4.97;;;20.10;1.00;;;;;;5028892;28;20443;-76
2021/03/26 15:25:24;;;;;;;5.53;3.90;;;20.50;1.00;;;;;;5017311;28;20477;-76
2021/03/26 15:28:22;;;;;;;7.37;4.43;;;20.70;1.00;;;;;;5031684;28;20456;-76